createdAt,value
2022-09-10T00:00:47.430Z,100056.91
2022-09-10T00:03:50.493Z,100044.72
2022-09-10T00:06:52.371Z,100044.16
2022-09-10T00:09:54.154Z,100041.63
2022-09-10T00:12:56.128Z,100038.13
2022-09-10T00:15:59.344Z,100031.09
2022-09-10T00:19:01.432Z,100040.19
2022-09-10T00:22:03.326Z,100038.94
2022-09-10T00:25:08.352Z,100033.81
2022-09-10T00:28:10.501Z,100037.03
2022-09-10T00:31:13.299Z,100030.97
2022-09-10T00:34:15.190Z,100031.59
2022-09-10T00:37:17.913Z,100036.25
2022-09-10T00:40:20.034Z,100037.50
2022-09-10T00:43:22.045Z,100033.03
2022-09-10T00:46:25.459Z,100016.41
2022-09-10T00:49:30.928Z,100027.75
2022-09-10T00:52:37.584Z,100019.16
2022-09-10T00:55:42.417Z,100018.16
2022-09-10T00:58:44.379Z,100020.69
2022-09-10T01:01:46.295Z,100014.31
2022-09-10T01:04:48.268Z,100013.06
2022-09-10T01:07:50.149Z,100005.94
2022-09-10T01:11:16.155Z,99997.19
2022-09-10T01:14:51.717Z,100003.25
2022-09-10T01:17:56.218Z,99994.47
2022-09-10T01:21:02.861Z,99993.63
2022-09-10T01:24:23.263Z,99991.09
2022-09-10T01:27:40.125Z,99992.38
2022-09-10T01:30:42.984Z,99987.31
2022-09-10T01:33:49.713Z,99984.41
2022-09-10T01:36:51.960Z,99983.69
2022-09-10T01:39:53.967Z,99979.56
2022-09-10T01:43:02.673Z,99970.47
2022-09-10T01:46:21.883Z,99961.31
2022-09-10T01:49:40.290Z,99963.37
2022-09-10T01:52:49.604Z,99943.88
2022-09-10T01:55:57.441Z,99943.38
2022-09-10T01:59:00.875Z,99944.81
2022-09-10T02:02:06.296Z,99973.53
2022-09-10T02:05:08.420Z,99962.69
2022-09-10T02:08:11.978Z,99952.44
2022-09-10T02:11:14.391Z,99938.44
2022-09-10T02:14:16.688Z,99938.03
2022-09-10T02:17:18.918Z,99929.06
2022-09-10T02:20:21.934Z,99920.84
2022-09-10T02:23:29.222Z,99937.66
2022-09-10T02:26:33.562Z,99928.25
2022-09-10T02:29:35.444Z,99944.91
2022-09-10T02:32:37.277Z,99939.72
2022-09-10T02:35:39.111Z,99932.66
2022-09-10T02:38:40.942Z,99940.75
2022-09-10T02:41:42.716Z,99934.53
2022-09-10T02:44:45.049Z,99929.06
2022-09-10T02:47:46.885Z,99918.59
2022-09-10T02:50:48.693Z,99904.53
2022-09-10T02:53:50.562Z,99923.22
2022-09-10T02:56:52.423Z,99916.81
2022-09-10T02:59:56.552Z,99923.69
2022-09-10T03:03:02.804Z,99934.06
2022-09-10T03:06:05.198Z,99931.38
2022-09-10T03:09:06.992Z,99943.62
2022-09-10T03:12:08.887Z,99943.16
2022-09-10T03:15:10.853Z,99946.59
2022-09-10T03:18:12.931Z,99952.88
2022-09-10T03:21:15.852Z,99937.59
2022-09-10T03:24:17.721Z,99943.00
2022-09-10T03:27:20.549Z,99939.81
2022-09-10T03:30:22.414Z,99938.50
2022-09-10T03:33:24.378Z,99946.44
2022-09-10T03:36:31.257Z,99937.81
2022-09-10T03:39:33.123Z,99934.91
2022-09-10T03:42:34.921Z,99940.13
2022-09-10T03:45:36.781Z,99934.00
2022-09-10T03:48:39.551Z,99934.66
2022-09-10T03:51:41.613Z,99927.94
2022-09-10T03:54:43.380Z,99938.19
2022-09-10T03:57:45.736Z,99937.19
2022-09-10T04:00:48.057Z,99941.44
2022-09-10T04:03:50.105Z,99946.56
2022-09-10T04:06:52.740Z,99936.53
2022-09-10T04:09:54.592Z,99948.06
2022-09-10T04:12:56.532Z,99928.47
2022-09-10T04:16:00.654Z,99930.88
2022-09-10T04:19:02.494Z,99935.16
2022-09-10T04:22:04.342Z,99949.19
2022-09-10T04:25:06.351Z,99958.72
2022-09-10T04:28:08.317Z,99950.13
2022-09-10T04:31:10.401Z,99947.28
2022-09-10T04:34:12.360Z,99941.50
2022-09-10T04:37:17.395Z,99950.47
2022-09-10T04:40:21.084Z,99958.31
2022-09-10T04:43:24.352Z,99957.00
2022-09-10T04:46:26.175Z,99960.16
2022-09-10T04:49:28.162Z,99968.06
2022-09-10T04:52:30.017Z,99970.81
2022-09-10T04:55:31.825Z,99967.09
2022-09-10T04:58:38.458Z,99966.44
2022-09-10T05:01:40.860Z,99973.81
2022-09-10T05:04:42.821Z,99969.34
2022-09-10T05:07:44.619Z,99966.78
2022-09-10T05:10:46.469Z,99960.53
2022-09-10T05:13:48.422Z,99953.78
2022-09-10T05:16:50.425Z,99953.28
2022-09-10T05:19:52.285Z,99952.91
2022-09-10T05:22:54.836Z,99961.19
2022-09-10T05:25:57.009Z,99965.94
2022-09-10T05:28:59.817Z,99948.56
2022-09-10T05:32:01.784Z,99964.63
2022-09-10T05:35:05.274Z,99964.66
2022-09-10T05:38:08.352Z,99987.56
2022-09-10T05:41:10.837Z,99985.84
2022-09-10T05:44:13.403Z,99971.59
2022-09-10T05:47:15.210Z,99972.34
2022-09-10T05:50:17.932Z,99978.44
2022-09-10T05:53:19.722Z,99967.94
2022-09-10T05:56:21.606Z,99971.59
2022-09-10T05:59:23.482Z,99974.09
2022-09-10T06:02:26.324Z,99975.31
2022-09-10T06:05:28.409Z,99971.72
2022-09-10T06:08:31.352Z,99965.34
2022-09-10T06:11:33.336Z,99972.41
2022-09-10T06:14:35.286Z,99961.28
2022-09-10T06:17:38.446Z,99971.28
2022-09-10T06:20:40.315Z,99971.03
2022-09-10T06:23:42.476Z,99966.78
2022-09-10T06:26:44.384Z,99960.16
2022-09-10T06:29:47.612Z,99955.75
2022-09-10T06:32:49.451Z,99962.59
2022-09-10T06:35:55.360Z,99947.34
2022-09-10T06:38:58.295Z,99954.06
2022-09-10T06:42:00.184Z,99956.00
2022-09-10T06:45:02.004Z,99958.78
2022-09-10T06:48:37.606Z,99951.28
2022-09-10T06:51:25.859Z,99957.34
2022-09-10T06:54:27.700Z,99948.13
2022-09-10T06:57:29.517Z,99955.47
2022-09-10T07:00:32.408Z,99968.19
2022-09-10T07:03:34.453Z,99986.22
2022-09-10T07:06:36.524Z,99994.03
2022-09-10T07:09:38.349Z,99991.28
2022-09-10T07:12:40.166Z,99995.59
2022-09-10T07:15:46.580Z,99993.84
2022-09-10T07:18:49.368Z,99995.22
2022-09-10T07:21:51.234Z,100001.72
2022-09-10T07:24:54.265Z,100016.81
2022-09-10T07:27:56.162Z,100002.78
2022-09-10T07:30:59.290Z,100008.06
2022-09-10T07:34:01.643Z,100011.19
2022-09-10T07:37:03.453Z,100002.91
2022-09-10T07:40:05.980Z,100019.75
2022-09-10T07:43:08.297Z,100009.38
2022-09-10T07:46:18.005Z,100017.75
2022-09-10T07:49:20.816Z,100019.94
2022-09-10T07:52:22.732Z,100033.44
2022-09-10T07:55:24.550Z,100037.25
2022-09-10T07:58:26.520Z,100040.94
2022-09-10T08:01:28.557Z,100035.12
2022-09-10T08:04:36.437Z,100037.41
2022-09-10T08:07:38.789Z,100040.53
2022-09-10T08:10:40.648Z,100041.09
2022-09-10T08:13:45.042Z,100040.13
2022-09-10T08:16:46.912Z,100043.87
2022-09-10T08:19:50.705Z,100060.94
2022-09-10T08:22:52.862Z,100050.06
2022-09-10T08:25:55.570Z,100046.94
2022-09-10T08:28:58.143Z,100044.34
2022-09-10T08:32:00.069Z,100048.81
2022-09-10T08:35:04.974Z,100044.41
2022-09-10T08:38:07.109Z,100040.94
2022-09-10T08:41:22.212Z,100045.78
2022-09-10T08:44:30.981Z,100037.37
2022-09-10T08:47:51.637Z,100043.16
2022-09-10T08:51:00.644Z,100040.22
2022-09-10T08:54:22.003Z,100035.31
2022-09-10T08:57:26.263Z,100033.28
2022-09-10T09:00:34.165Z,100035.69
2022-09-10T09:03:37.402Z,100027.75
2022-09-10T09:06:49.321Z,100034.47
2022-09-10T09:09:51.742Z,100036.16
2022-09-10T09:13:06.108Z,100041.25
2022-09-10T09:16:11.119Z,100044.66
2022-09-10T09:19:17.279Z,100050.13
2022-09-10T09:22:20.299Z,100057.19
2022-09-10T09:25:27.775Z,100051.69
2022-09-10T09:28:29.606Z,100054.34
2022-09-10T09:31:33.013Z,100052.66
2022-09-10T09:34:36.583Z,100054.50
2022-09-10T09:37:38.458Z,100057.59
2022-09-10T09:40:59.117Z,100056.75
2022-09-10T09:44:01.202Z,100039.97
2022-09-10T09:47:03.032Z,100039.94
2022-09-10T09:50:04.967Z,100043.47
2022-09-10T09:53:07.332Z,100041.47
2022-09-10T09:56:18.274Z,100042.22
2022-09-10T09:59:30.229Z,100018.97
2022-09-10T10:02:32.101Z,100021.81
2022-09-10T10:05:34.060Z,100017.56
2022-09-10T10:08:56.126Z,100015.59
2022-09-10T10:11:59.472Z,100007.78
2022-09-10T10:15:02.920Z,100006.19
2022-09-10T10:18:27.864Z,99992.59
2022-09-10T10:21:30.830Z,99999.78
2022-09-10T10:24:33.645Z,100002.34
2022-09-10T10:27:35.998Z,99996.25
2022-09-10T10:30:37.852Z,99987.78
2022-09-10T10:33:42.490Z,99989.22
2022-09-10T10:37:03.145Z,99992.78
2022-09-10T10:40:26.496Z,99986.34
2022-09-10T10:43:50.310Z,99990.12
2022-09-10T10:47:11.584Z,99978.59
2022-09-10T10:50:21.426Z,99970.59
2022-09-10T10:53:26.800Z,99972.34
2022-09-10T10:56:36.177Z,99972.09
2022-09-10T10:59:41.055Z,99973.13
2022-09-10T11:02:46.000Z,99973.38
2022-09-10T11:05:56.260Z,99967.41
2022-09-10T11:08:59.449Z,99967.75
2022-09-10T11:12:03.012Z,99956.66
2022-09-10T11:15:23.982Z,99974.97
2022-09-10T11:18:28.774Z,99970.16
2022-09-10T11:21:33.548Z,99967.50
2022-09-10T11:24:44.636Z,99970.13
2022-09-10T11:27:49.527Z,99958.88
2022-09-10T11:30:56.855Z,99946.22
2022-09-10T11:34:05.652Z,99958.91
2022-09-10T11:37:20.659Z,99954.06
2022-09-10T11:40:35.328Z,99961.34
2022-09-10T11:43:37.310Z,99959.88
2022-09-10T11:46:39.564Z,99953.88
2022-09-10T11:50:02.443Z,99965.59
2022-09-10T11:53:07.647Z,99954.25
2022-09-10T11:56:15.556Z,99953.34
2022-09-10T11:59:36.712Z,99947.94
2022-09-10T12:02:50.969Z,99944.31
2022-09-10T12:05:56.168Z,99941.09
2022-09-10T12:09:06.298Z,99935.81
2022-09-10T12:12:31.516Z,99945.03
2022-09-10T12:15:37.132Z,99939.53
2022-09-10T12:18:43.297Z,99949.63
2022-09-10T12:22:14.791Z,99947.72
2022-09-10T12:25:16.551Z,99952.47
2022-09-10T12:28:37.423Z,99944.06
2022-09-10T12:31:58.278Z,99936.78
2022-09-10T12:35:26.259Z,99948.59
2022-09-10T12:38:47.408Z,99941.25
2022-09-10T12:41:49.866Z,99950.78
2022-09-10T12:44:51.700Z,99944.97
2022-09-10T12:47:53.549Z,99946.00
2022-09-10T12:51:00.547Z,99947.25
2022-09-10T12:54:11.751Z,99932.09
2022-09-10T12:57:26.312Z,99921.28
2022-09-10T13:00:31.328Z,99946.59
2022-09-10T13:03:33.114Z,99930.50
2022-09-10T13:06:34.891Z,99925.03
2022-09-10T13:09:37.074Z,99929.91
2022-09-10T13:12:40.574Z,99920.13
2022-09-10T13:15:43.380Z,99923.97
2022-09-10T13:18:46.723Z,99922.75
2022-09-10T13:21:48.565Z,99917.28
2022-09-10T13:25:00.490Z,99912.34
2022-09-10T13:28:20.846Z,99920.41
2022-09-10T13:31:29.521Z,99924.13
2022-09-10T13:34:41.202Z,99937.00
2022-09-10T13:37:54.745Z,99946.84
2022-09-10T13:41:06.497Z,99940.56
2022-09-10T13:44:08.509Z,99934.16
2022-09-10T13:47:11.714Z,99939.19
2022-09-10T13:50:23.658Z,99936.84
2022-09-10T13:53:26.381Z,99935.16
2022-09-10T13:56:28.233Z,99924.78
2022-09-10T13:59:31.238Z,99928.59
2022-09-10T14:02:42.866Z,99918.00
2022-09-10T14:05:47.055Z,99918.00
2022-09-10T14:08:51.805Z,99907.25
2022-09-10T14:11:53.618Z,99905.00
2022-09-10T14:15:00.498Z,99903.69
2022-09-10T14:18:02.422Z,99907.06
2022-09-10T14:21:04.463Z,99905.84
2022-09-10T14:24:06.288Z,99907.91
2022-09-10T14:27:24.981Z,99900.50
2022-09-10T14:30:29.479Z,99906.19
2022-09-10T14:33:35.483Z,99899.66
2022-09-10T14:36:37.284Z,99895.37
2022-09-10T14:39:43.456Z,99894.13
2022-09-10T14:42:45.858Z,99902.37
2022-09-10T14:45:49.718Z,99904.38
2022-09-10T14:49:02.160Z,99898.75
2022-09-10T14:52:04.595Z,99895.44
2022-09-10T14:55:06.521Z,99904.56
2022-09-10T14:58:08.341Z,99905.19
2022-09-10T15:01:10.287Z,99902.37
2022-09-10T15:04:14.051Z,99908.41
2022-09-10T15:07:16.206Z,99907.59
2022-09-10T15:10:18.102Z,99906.22
2022-09-10T15:13:20.124Z,99908.75
2022-09-10T15:16:23.300Z,99922.03
2022-09-10T15:19:25.361Z,99919.50
2022-09-10T15:22:28.243Z,99916.13
2022-09-10T15:25:40.632Z,99921.91
2022-09-10T15:28:42.452Z,99920.72
2022-09-10T15:31:44.354Z,99919.66
2022-09-10T15:34:46.275Z,99920.84
2022-09-10T15:37:48.138Z,99924.72
2022-09-10T15:40:50.229Z,99930.59
2022-09-10T15:43:52.301Z,99934.47
2022-09-10T15:46:54.669Z,99941.69
2022-09-10T15:49:56.736Z,99948.91
2022-09-10T15:52:58.753Z,99940.34
2022-09-10T15:56:01.575Z,99943.22
2022-09-10T15:59:03.714Z,99951.22
2022-09-10T16:02:06.602Z,99957.50
2022-09-10T16:05:08.736Z,99964.66
2022-09-10T16:08:10.593Z,99963.53
2022-09-10T16:11:12.428Z,99966.59
2022-09-10T16:14:14.741Z,99967.91
2022-09-10T16:17:17.408Z,99980.69
2022-09-10T16:20:20.439Z,99981.75
2022-09-10T16:23:22.342Z,99985.25
2022-09-10T16:26:26.281Z,99999.38
2022-09-10T16:29:32.594Z,99985.78
2022-09-10T16:32:34.498Z,99985.75
2022-09-10T16:35:36.525Z,99986.81
2022-09-10T16:38:39.472Z,99986.88
2022-09-10T16:41:42.261Z,99991.56
2022-09-10T16:44:44.092Z,99982.25
2022-09-10T16:47:45.941Z,99996.00
2022-09-10T16:50:47.858Z,99991.34
2022-09-10T16:53:55.598Z,99987.22
2022-09-10T16:56:57.407Z,100000.47
2022-09-10T16:59:59.723Z,100003.44
2022-09-10T17:03:01.871Z,100007.91
2022-09-10T17:06:05.049Z,100016.63
2022-09-10T17:09:06.886Z,100013.22
2022-09-10T17:12:10.587Z,100009.59
2022-09-10T17:15:12.413Z,100007.69
2022-09-10T17:18:14.229Z,100013.31
2022-09-10T17:21:16.060Z,100017.25
2022-09-10T17:24:18.649Z,100016.81
2022-09-10T17:27:24.790Z,100021.84
2022-09-10T17:30:27.282Z,100030.81
2022-09-10T17:33:29.432Z,100035.62
2022-09-10T17:36:31.328Z,100039.81
2022-09-10T17:39:33.305Z,100034.44
2022-09-10T17:42:35.153Z,100044.03
2022-09-10T17:45:36.973Z,100042.38
2022-09-10T17:48:38.980Z,100050.03
2022-09-10T17:51:41.197Z,100048.16
2022-09-10T17:54:43.100Z,100057.75
2022-09-10T17:57:45.074Z,100065.66
2022-09-10T18:00:49.949Z,100066.19
2022-09-10T18:03:52.039Z,100079.72
2022-09-10T18:06:54.232Z,100084.25
2022-09-10T18:09:56.085Z,100084.47
2022-09-10T18:13:00.286Z,100093.81
2022-09-10T18:16:09.451Z,100096.62
2022-09-10T18:19:14.291Z,100099.97
2022-09-10T18:22:16.311Z,100100.97
2022-09-10T18:25:19.965Z,100107.03
2022-09-10T18:28:21.914Z,100109.00
2022-09-10T18:31:24.407Z,100118.78
2022-09-10T18:34:27.864Z,100113.62
2022-09-10T18:37:29.998Z,100113.34
2022-09-10T18:40:34.156Z,100115.44
2022-09-10T18:43:37.101Z,100119.31
2022-09-10T18:46:39.045Z,100123.22
2022-09-10T18:49:42.261Z,100124.25
2022-09-10T18:52:44.124Z,100126.69
2022-09-10T18:55:46.090Z,100129.22
2022-09-10T18:58:55.920Z,100121.91
2022-09-10T19:01:57.829Z,100115.69
2022-09-10T19:05:11.402Z,100116.47
2022-09-10T19:08:17.462Z,100108.69
2022-09-10T19:11:20.138Z,100113.56
2022-09-10T19:14:23.151Z,100100.56
2022-09-10T19:17:24.972Z,100099.28
2022-09-10T19:20:26.817Z,100101.47
2022-09-10T19:23:28.606Z,100098.28
2022-09-10T19:26:34.418Z,100096.12
2022-09-10T19:29:36.632Z,100089.03
2022-09-10T19:32:38.485Z,100097.38
2022-09-10T19:35:40.311Z,100091.34
2022-09-10T19:38:42.547Z,100094.16
2022-09-10T19:41:44.799Z,100103.88
2022-09-10T19:44:46.700Z,100095.31
2022-09-10T19:47:48.491Z,100112.03
2022-09-10T19:50:50.415Z,100106.22
2022-09-10T19:53:52.346Z,100108.28
2022-09-10T19:56:56.507Z,100111.69
2022-09-10T19:59:58.398Z,100109.03
2022-09-10T20:03:00.256Z,100127.94
2022-09-10T20:06:02.169Z,100124.47
2022-09-10T20:09:04.706Z,100130.59
2022-09-10T20:12:06.879Z,100108.16
2022-09-10T20:15:08.853Z,100103.34
2022-09-10T20:18:11.319Z,100104.87
2022-09-10T20:21:20.383Z,100116.44
2022-09-10T20:24:22.499Z,100120.94
2022-09-10T20:27:24.352Z,100127.69
2022-09-10T20:30:26.236Z,100130.19
2022-09-10T20:33:28.084Z,100119.97
2022-09-10T20:36:31.283Z,100120.06
2022-09-10T20:39:33.130Z,100134.03
2022-09-10T20:42:34.971Z,100128.84
2022-09-10T20:45:41.899Z,100130.47
2022-09-10T20:48:48.798Z,100127.47
2022-09-10T20:51:51.209Z,100138.09
2022-09-10T20:54:53.029Z,100120.91
2022-09-10T20:57:54.863Z,100137.28
2022-09-10T21:01:04.125Z,100135.63
2022-09-10T21:04:06.154Z,100119.28
2022-09-10T21:07:07.970Z,100122.13
2022-09-10T21:10:09.888Z,100111.94
2022-09-10T21:13:11.719Z,100119.25
2022-09-10T21:16:14.699Z,100130.16
2022-09-10T21:19:17.167Z,100129.03
2022-09-10T21:22:20.254Z,100122.94
2022-09-10T21:25:22.290Z,100106.19
2022-09-10T21:28:24.176Z,100113.31
2022-09-10T21:31:27.257Z,100113.22
2022-09-10T21:34:29.212Z,100129.31
2022-09-10T21:37:31.028Z,100117.88
2022-09-10T21:40:32.937Z,100106.50
2022-09-10T21:43:35.037Z,100118.37
2022-09-10T21:46:36.943Z,100115.44
2022-09-10T21:49:39.192Z,100115.66
2022-09-10T21:52:41.039Z,100117.06
2022-09-10T21:55:43.422Z,100135.94
2022-09-10T21:58:45.543Z,100130.38
2022-09-10T22:01:47.592Z,100132.78
2022-09-10T22:04:49.566Z,100130.75
2022-09-10T22:07:53.093Z,100134.75
2022-09-10T22:10:54.963Z,100137.03
2022-09-10T22:13:58.662Z,100144.44
2022-09-10T22:17:00.619Z,100150.13
2022-09-10T22:20:02.607Z,100157.25
2022-09-10T22:23:04.407Z,100151.34
2022-09-10T22:26:24.713Z,100159.94
2022-09-10T22:29:26.622Z,100163.06
2022-09-10T22:32:28.809Z,100168.88
2022-09-10T22:35:31.153Z,100173.22
2022-09-10T22:38:33.124Z,100181.47
2022-09-10T22:41:35.562Z,100180.25
2022-09-10T22:44:37.366Z,100181.47
2022-09-10T22:47:39.185Z,100184.56
2022-09-10T22:50:41.276Z,100175.28
2022-09-10T22:53:43.281Z,100185.84
2022-09-10T22:56:45.066Z,100185.66
2022-09-10T22:59:47.437Z,100182.69
2022-09-10T23:02:49.385Z,100193.44
2022-09-10T23:05:51.209Z,100187.69
2022-09-10T23:08:53.863Z,100188.72
2022-09-10T23:11:55.708Z,100189.72
2022-09-10T23:14:57.556Z,100199.66
2022-09-10T23:17:59.848Z,100194.47
2022-09-10T23:21:04.875Z,100187.81
2022-09-10T23:24:08.137Z,100189.56
2022-09-10T23:27:09.955Z,100192.16
2022-09-10T23:30:12.150Z,100187.34
2022-09-10T23:33:13.946Z,100186.22
2022-09-10T23:36:15.735Z,100182.31
2022-09-10T23:39:18.756Z,100175.63
2022-09-10T23:42:20.592Z,100177.69
2022-09-10T23:45:22.690Z,100179.25
2022-09-10T23:48:24.806Z,100180.94
2022-09-10T23:51:27.074Z,100175.16
2022-09-10T23:54:30.193Z,100172.50
2022-09-10T23:57:32.093Z,100179.91
